createdAt,value
2018-04-26T00:01:41.530Z,7.10
2018-04-26T00:04:09.092Z,7.10
2018-04-26T00:06:37.413Z,7.10
2018-04-26T00:09:04.950Z,7.10
2018-04-26T00:11:33.283Z,7.10
2018-04-26T00:14:00.824Z,7.10
2018-04-26T00:16:28.387Z,7.20
2018-04-26T00:18:56.695Z,7.00
2018-04-26T00:21:24.259Z,7.00
2018-04-26T00:23:51.798Z,7.00
2018-04-26T00:26:20.146Z,6.90
2018-04-26T00:28:47.688Z,6.90
2018-04-26T00:31:15.248Z,6.90
2018-04-26T00:33:43.551Z,6.90
2018-04-26T00:36:11.110Z,6.90
2018-04-26T00:38:39.420Z,6.80
2018-04-26T00:41:06.991Z,6.80
2018-04-26T00:43:34.527Z,6.80
2018-04-26T00:46:02.863Z,6.70
2018-04-26T00:48:30.410Z,6.70
2018-04-26T00:50:57.979Z,6.70
2018-04-26T00:53:26.291Z,6.70
2018-04-26T00:55:53.854Z,6.60
2018-04-26T00:58:21.382Z,6.60
2018-04-26T01:00:48.955Z,6.50
2018-04-26T01:03:16.501Z,6.40
2018-04-26T01:05:44.058Z,6.40
2018-04-26T01:08:11.597Z,6.30
2018-04-26T01:10:39.167Z,6.30
2018-04-26T01:13:06.711Z,6.20
2018-04-26T01:15:34.270Z,6.20
2018-04-26T01:18:01.811Z,6.20
2018-04-26T01:20:29.394Z,6.20
2018-04-26T01:22:56.936Z,6.10
2018-04-26T01:25:24.470Z,6.10
2018-04-26T01:27:52.031Z,6.10
2018-04-26T01:30:19.567Z,6.10
2018-04-26T01:32:47.132Z,6.00
2018-04-26T01:35:14.714Z,6.00
2018-04-26T01:37:49.128Z,6.00
2018-04-26T01:40:16.679Z,6.00
2018-04-26T01:42:45.004Z,5.80
2018-04-26T01:45:12.552Z,5.80
2018-04-26T01:47:40.107Z,5.70
2018-04-26T01:50:08.420Z,5.60
2018-04-26T01:52:35.979Z,5.60
2018-04-26T01:55:05.110Z,5.50
2018-04-26T01:57:32.672Z,5.50
2018-04-26T02:00:00.214Z,5.50
2018-04-26T02:02:28.536Z,5.40
2018-04-26T02:04:56.070Z,5.40
2018-04-26T02:07:23.636Z,5.40
2018-04-26T02:09:51.178Z,5.40
2018-04-26T02:12:18.744Z,5.30
2018-04-26T02:14:46.285Z,5.30
2018-04-26T02:17:13.856Z,5.30
2018-04-26T02:19:41.431Z,5.20
2018-04-26T02:22:08.981Z,5.30
2018-04-26T02:24:37.295Z,5.20
2018-04-26T02:27:04.850Z,5.20
2018-04-26T02:29:32.389Z,5.20
2018-04-26T02:31:59.953Z,5.20
2018-04-26T02:34:27.527Z,5.10
2018-04-26T02:36:55.067Z,5.10
2018-04-26T02:39:22.631Z,5.10
2018-04-26T02:41:50.178Z,5.00
2018-04-26T02:44:17.746Z,5.00
2018-04-26T02:46:45.286Z,4.90
2018-04-26T02:49:12.852Z,4.90
2018-04-26T02:51:40.393Z,4.90
2018-04-26T02:54:07.963Z,4.80
2018-04-26T02:56:35.512Z,4.80
2018-04-26T02:59:03.077Z,4.80
2018-04-26T03:01:31.381Z,4.80
2018-04-26T03:03:58.951Z,4.80
2018-04-26T03:06:26.490Z,4.80
2018-04-26T03:08:54.059Z,4.80
2018-04-26T03:11:21.612Z,4.80
2018-04-26T03:13:49.180Z,4.80
2018-04-26T03:16:16.718Z,4.80
2018-04-26T03:18:44.280Z,4.80
2018-04-26T03:21:11.819Z,4.80
2018-04-26T03:23:40.152Z,4.70
2018-04-26T03:26:07.690Z,4.70
2018-04-26T03:28:36.028Z,4.70
2018-04-26T03:31:03.632Z,4.70
2018-04-26T03:33:31.167Z,4.70
2018-04-26T03:35:58.714Z,4.80
2018-04-26T03:38:26.289Z,4.70
2018-04-26T03:40:53.835Z,4.80
2018-04-26T03:43:22.172Z,4.80
2018-04-26T03:45:49.714Z,4.70
2018-04-26T03:48:17.301Z,4.80
2018-04-26T03:50:44.842Z,4.70
2018-04-26T03:53:13.154Z,4.80
2018-04-26T03:55:40.757Z,4.70
2018-04-26T03:58:08.337Z,4.80
2018-04-26T04:00:47.715Z,4.80
2018-04-26T04:03:27.523Z,4.90
2018-04-26T04:08:58.560Z,4.90
2018-04-26T04:11:26.106Z,5.00
2018-04-26T04:13:54.452Z,5.40
2018-04-26T04:16:22.007Z,5.30
2018-04-26T04:18:49.604Z,5.60
2018-04-26T04:21:17.146Z,5.70
2018-04-26T04:23:44.691Z,5.90
2018-04-26T04:26:12.253Z,6.20
2018-04-26T04:28:40.561Z,6.50
2018-04-26T04:31:08.128Z,6.50
2018-04-26T04:33:35.672Z,6.80
2018-04-26T04:36:03.225Z,7.00
2018-04-26T04:38:30.762Z,7.30
2018-04-26T04:40:58.320Z,7.60
2018-04-26T04:43:25.854Z,7.90
2018-04-26T04:45:53.418Z,8.10
2018-04-26T04:48:20.970Z,8.40
2018-04-26T04:50:48.527Z,8.70
2018-04-26T04:53:16.071Z,8.80
2018-04-26T04:55:43.633Z,8.70
2018-04-26T04:58:11.173Z,8.70
2018-04-26T05:00:38.739Z,9.00
2018-04-26T05:03:06.280Z,9.20
2018-04-26T05:05:33.835Z,9.40
2018-04-26T05:08:01.375Z,9.50
2018-04-26T05:10:29.704Z,9.50
2018-04-26T05:12:57.247Z,9.50
2018-04-26T05:15:25.579Z,9.50
2018-04-26T05:17:53.123Z,9.50
2018-04-26T05:20:20.697Z,9.40
2018-04-26T05:22:48.256Z,9.20
2018-04-26T05:25:15.815Z,9.10
2018-04-26T05:27:44.146Z,9.00
2018-04-26T05:30:11.695Z,9.00
2018-04-26T05:32:39.259Z,9.00
2018-04-26T05:35:07.567Z,8.30
2018-04-26T05:37:35.135Z,8.30
2018-04-26T05:40:02.674Z,8.30
2018-04-26T05:42:31.008Z,9.00
2018-04-26T05:44:58.542Z,9.00
2018-04-26T05:47:26.927Z,9.60
2018-04-26T05:49:54.430Z,9.60
2018-04-26T05:52:22.004Z,9.90
2018-04-26T05:54:49.631Z,9.90
2018-04-26T05:57:17.216Z,9.70
2018-04-26T05:59:45.527Z,9.20
2018-04-26T06:02:13.095Z,9.20
2018-04-26T06:04:40.649Z,9.00
2018-04-26T06:07:08.981Z,8.70
2018-04-26T06:09:36.529Z,8.70
2018-04-26T06:12:04.092Z,8.80
2018-04-26T06:14:32.395Z,9.20
2018-04-26T06:17:00.032Z,9.10
2018-04-26T06:19:27.524Z,9.50
2018-04-26T06:21:55.852Z,10.10
2018-04-26T06:24:23.419Z,10.10
2018-04-26T06:26:50.960Z,10.20
2018-04-26T06:29:18.515Z,10.20
2018-04-26T06:31:46.832Z,10.00
2018-04-26T06:34:14.394Z,10.00
2018-04-26T06:36:42.703Z,9.70
2018-04-26T06:39:10.268Z,9.60
2018-04-26T06:41:37.810Z,9.60
2018-04-26T06:44:06.143Z,9.50
2018-04-26T06:46:33.711Z,9.50
2018-04-26T06:49:01.279Z,9.60
2018-04-26T06:51:28.817Z,9.60
2018-04-26T06:53:57.146Z,9.80
2018-04-26T06:56:24.712Z,9.80
2018-04-26T06:58:52.283Z,9.80
2018-04-26T07:01:19.822Z,10.00
2018-04-26T07:03:48.157Z,9.90
2018-04-26T07:06:15.698Z,9.80
2018-04-26T07:08:43.259Z,9.90
2018-04-26T07:11:11.595Z,10.10
2018-04-26T07:13:39.146Z,10.00
2018-04-26T07:16:06.714Z,10.10
2018-04-26T07:18:34.258Z,10.10
2018-04-26T07:21:02.587Z,9.90
2018-04-26T07:23:30.128Z,9.90
2018-04-26T07:25:57.731Z,9.90
2018-04-26T07:28:25.320Z,10.00
2018-04-26T07:30:52.893Z,10.10
2018-04-26T07:33:20.435Z,10.30
2018-04-26T07:35:48.007Z,10.60
2018-04-26T07:38:15.573Z,11.10
2018-04-26T07:40:43.143Z,11.20
2018-04-26T07:43:10.694Z,11.10
2018-04-26T07:45:39.029Z,10.90
2018-04-26T07:48:06.579Z,10.90
2018-04-26T07:50:34.179Z,10.90
2018-04-26T07:53:01.782Z,11.10
2018-04-26T07:55:29.292Z,11.10
2018-04-26T07:57:56.854Z,11.40
2018-04-26T08:00:24.412Z,11.60
2018-04-26T08:02:52.758Z,11.40
2018-04-26T08:05:21.074Z,11.30
2018-04-26T08:07:48.645Z,11.30
2018-04-26T08:10:16.296Z,11.30
2018-04-26T08:12:44.635Z,11.40
2018-04-26T08:15:12.946Z,11.60
2018-04-26T08:17:40.517Z,11.60
2018-04-26T08:20:08.059Z,11.70
2018-04-26T08:22:36.393Z,11.90
2018-04-26T08:25:04.029Z,11.90
2018-04-26T08:27:31.535Z,11.70
2018-04-26T08:29:59.083Z,11.40
2018-04-26T08:32:26.663Z,11.30
2018-04-26T08:34:54.238Z,11.10
2018-04-26T08:37:21.782Z,11.00
2018-04-26T08:39:50.119Z,11.10
2018-04-26T08:42:17.662Z,11.00
2018-04-26T08:44:45.221Z,11.10
2018-04-26T08:47:13.539Z,11.20
2018-04-26T08:49:41.103Z,11.20
2018-04-26T08:52:08.654Z,11.40
2018-04-26T08:54:36.223Z,11.50
2018-04-26T08:57:04.542Z,11.40
2018-04-26T08:59:32.122Z,11.30
2018-04-26T09:01:59.663Z,11.10
2018-04-26T09:04:27.226Z,10.70
2018-04-26T09:06:55.527Z,8.80
2018-04-26T09:09:23.094Z,8.80
2018-04-26T09:11:50.641Z,8.20
2018-04-26T09:14:18.218Z,7.90
2018-04-26T09:16:46.526Z,7.80
2018-04-26T09:19:14.066Z,7.80
2018-04-26T09:21:41.636Z,7.80
2018-04-26T09:24:09.179Z,7.80
2018-04-26T09:26:36.742Z,7.80
2018-04-26T09:29:04.290Z,7.70
2018-04-26T09:31:31.851Z,7.60
2018-04-26T09:33:59.390Z,7.60
2018-04-26T09:36:26.954Z,7.50
2018-04-26T09:38:54.499Z,7.70
2018-04-26T09:41:22.063Z,7.90
2018-04-26T09:43:49.611Z,8.10
2018-04-26T09:46:17.175Z,8.50
2018-04-26T09:48:44.756Z,8.80
2018-04-26T09:51:13.075Z,9.60
2018-04-26T09:53:40.612Z,9.60
2018-04-26T09:56:08.175Z,10.00
2018-04-26T09:58:36.494Z,10.50
2018-04-26T10:01:10.015Z,10.50
2018-04-26T10:03:38.334Z,10.70
2018-04-26T10:09:12.667Z,10.50
2018-04-26T10:11:40.241Z,10.20
2018-04-26T10:14:07.814Z,9.90
2018-04-26T10:16:35.375Z,9.50
2018-04-26T10:19:02.925Z,9.30
2018-04-26T10:21:30.488Z,9.20
2018-04-26T10:23:58.792Z,8.80
2018-04-26T10:26:26.355Z,8.80
2018-04-26T10:28:53.899Z,8.50
2018-04-26T10:31:21.480Z,8.40
2018-04-26T10:33:49.785Z,8.40
2018-04-26T10:36:17.327Z,8.40
2018-04-26T10:38:44.898Z,8.80
2018-04-26T10:41:12.437Z,9.30
2018-04-26T10:43:39.998Z,9.40
2018-04-26T10:46:07.575Z,9.40
2018-04-26T10:48:35.126Z,9.20
2018-04-26T10:51:02.659Z,9.10
2018-04-26T10:53:30.231Z,9.00
2018-04-26T10:55:57.766Z,8.80
2018-04-26T10:58:25.355Z,8.80
2018-04-26T11:00:52.899Z,8.80
2018-04-26T11:03:20.439Z,8.90
2018-04-26T11:05:48.004Z,8.90
2018-04-26T11:08:16.319Z,9.30
2018-04-26T11:10:43.883Z,9.30
2018-04-26T11:13:11.433Z,9.60
2018-04-26T11:15:39.821Z,11.00
2018-04-26T11:18:07.346Z,11.00
2018-04-26T11:20:34.916Z,11.20
2018-04-26T11:23:02.459Z,11.70
2018-04-26T11:25:30.018Z,12.20
2018-04-26T11:27:57.563Z,12.30
2018-04-26T11:30:25.129Z,12.40
2018-04-26T11:32:52.693Z,12.30
2018-04-26T11:35:20.264Z,12.00
2018-04-26T11:37:47.809Z,11.70
2018-04-26T11:40:15.384Z,11.80
2018-04-26T11:42:42.957Z,11.90
2018-04-26T11:45:10.530Z,11.90
2018-04-26T11:47:38.080Z,11.90
2018-04-26T11:50:05.643Z,11.70
2018-04-26T11:52:33.256Z,11.60
2018-04-26T11:55:00.767Z,12.10
2018-04-26T11:57:29.077Z,12.60
2018-04-26T11:59:56.648Z,12.60
2018-04-26T12:02:24.257Z,12.70
2018-04-26T12:04:52.530Z,12.90
2018-04-26T12:07:20.095Z,12.90
2018-04-26T12:09:47.649Z,12.90
2018-04-26T12:12:15.215Z,13.00
2018-04-26T12:14:42.763Z,13.00
2018-04-26T12:17:10.332Z,12.70
2018-04-26T12:19:37.874Z,12.40
2018-04-26T12:22:05.435Z,12.20
2018-04-26T12:24:32.978Z,12.00
2018-04-26T12:27:00.544Z,12.10
2018-04-26T12:29:28.091Z,12.40
2018-04-26T12:31:56.432Z,12.20
2018-04-26T12:34:23.985Z,12.20
2018-04-26T12:36:51.555Z,12.00
2018-04-26T12:39:19.103Z,12.00
2018-04-26T12:41:47.412Z,11.70
2018-04-26T12:44:14.974Z,11.70
2018-04-26T12:46:43.276Z,11.40
2018-04-26T12:49:10.838Z,11.40
2018-04-26T12:51:38.383Z,11.20
2018-04-26T12:54:05.951Z,10.90
2018-04-26T12:56:33.498Z,10.50
2018-04-26T12:59:01.067Z,9.80
2018-04-26T13:01:28.610Z,9.40
2018-04-26T13:03:56.170Z,9.20
2018-04-26T13:06:23.710Z,9.30
2018-04-26T13:08:51.267Z,9.50
2018-04-26T13:11:18.806Z,9.70
2018-04-26T13:13:46.363Z,9.90
2018-04-26T13:16:13.902Z,10.10
2018-04-26T13:18:42.232Z,10.80
2018-04-26T13:21:09.793Z,10.70
2018-04-26T13:23:37.383Z,11.30
2018-04-26T13:26:04.960Z,11.60
2018-04-26T13:28:32.503Z,11.90
2018-04-26T13:31:00.067Z,12.00
2018-04-26T13:33:27.620Z,12.20
2018-04-26T13:35:55.960Z,12.50
2018-04-26T13:38:23.502Z,12.50
2018-04-26T13:40:51.095Z,12.30
2018-04-26T13:43:18.684Z,12.00
2018-04-26T13:45:46.256Z,12.30
2018-04-26T13:48:13.811Z,12.40
2018-04-26T13:50:41.380Z,12.70
2018-04-26T13:53:08.931Z,13.10
2018-04-26T13:55:36.518Z,13.60
2018-04-26T13:58:04.066Z,13.70
2018-04-26T14:00:31.643Z,13.40
2018-04-26T14:02:59.234Z,12.90
2018-04-26T14:05:26.923Z,12.30
2018-04-26T14:07:54.500Z,11.50
2018-04-26T14:10:22.040Z,10.70
2018-04-26T14:12:49.646Z,10.60
2018-04-26T14:15:17.268Z,10.30
2018-04-26T14:17:45.595Z,9.80
2018-04-26T14:20:13.130Z,9.80
2018-04-26T14:22:41.454Z,9.70
2018-04-26T14:25:08.986Z,9.70
2018-04-26T14:27:37.321Z,10.60
2018-04-26T14:30:04.875Z,10.50
2018-04-26T14:32:32.453Z,11.00
2018-04-26T14:34:59.998Z,11.40
2018-04-26T14:37:28.386Z,11.90
2018-04-26T14:39:55.891Z,11.90
2018-04-26T14:42:23.435Z,12.00
2018-04-26T14:44:50.998Z,11.80
2018-04-26T14:47:19.303Z,11.20
2018-04-26T14:49:46.886Z,11.20
2018-04-26T14:52:14.444Z,11.10
2018-04-26T14:54:42.012Z,10.90
2018-04-26T14:57:09.546Z,10.70
2018-04-26T14:59:37.110Z,10.50
2018-04-26T15:02:04.656Z,10.30
2018-04-26T15:04:32.227Z,10.10
2018-04-26T15:06:59.779Z,9.90
2018-04-26T15:09:27.334Z,9.60
2018-04-26T15:11:54.883Z,9.40
2018-04-26T15:14:22.453Z,9.30
2018-04-26T15:16:50.825Z,9.10
2018-04-26T15:19:18.394Z,9.00
2018-04-26T15:21:45.998Z,8.90
2018-04-26T15:24:13.522Z,8.80
2018-04-26T15:26:41.092Z,8.80
2018-04-26T15:29:08.659Z,8.80
2018-04-26T15:31:36.218Z,8.80
2018-04-26T15:34:03.763Z,8.80
2018-04-26T15:36:32.099Z,8.80
2018-04-26T15:38:59.683Z,8.80
2018-04-26T15:41:27.267Z,8.80
2018-04-26T15:43:54.807Z,8.90
2018-04-26T15:46:22.367Z,9.00
2018-04-26T15:48:49.898Z,9.20
2018-04-26T15:51:18.317Z,10.10
2018-04-26T15:53:57.563Z,10.10
2018-04-26T15:56:36.855Z,10.30
2018-04-26T15:59:16.301Z,10.20
2018-04-26T16:02:19.147Z,9.90
2018-04-26T16:04:58.536Z,9.70
2018-04-26T16:07:54.394Z,9.60
2018-04-26T16:10:39.443Z,9.70
2018-04-26T16:13:24.700Z,9.80
2018-04-26T16:16:10.615Z,10.10
2018-04-26T16:18:49.901Z,10.00
2018-04-26T16:21:35.430Z,10.30
2018-04-26T16:24:20.778Z,10.40
2018-04-26T16:27:06.011Z,10.60
2018-04-26T16:29:46.118Z,10.20
2018-04-26T16:32:31.390Z,10.20
2018-04-26T16:35:16.679Z,10.20
2018-04-26T16:38:01.900Z,10.20
2018-04-26T16:40:29.468Z,10.30
2018-04-26T16:42:57.027Z,10.70
2018-04-26T16:45:24.592Z,10.90
2018-04-26T16:47:52.155Z,11.00
2018-04-26T16:50:19.703Z,10.90
2018-04-26T16:52:48.034Z,10.70
2018-04-26T16:55:15.582Z,10.70
2018-04-26T16:57:43.148Z,10.60
2018-04-26T17:00:11.454Z,10.30
2018-04-26T17:02:39.018Z,10.30
2018-04-26T17:05:06.566Z,10.00
2018-04-26T17:07:34.910Z,9.60
2018-04-26T17:10:02.463Z,9.60
2018-04-26T17:12:30.019Z,9.40
2018-04-26T17:14:57.569Z,9.30
2018-04-26T17:17:25.893Z,9.10
2018-04-26T17:19:53.446Z,9.10
2018-04-26T17:22:21.019Z,9.10
2018-04-26T17:24:48.591Z,9.10
2018-04-26T17:27:16.134Z,9.20
2018-04-26T17:29:43.707Z,9.20
2018-04-26T17:32:11.247Z,9.50
2018-04-26T17:34:38.803Z,9.80
2018-04-26T17:37:06.342Z,10.10
2018-04-26T17:39:34.674Z,10.70
2018-04-26T17:42:03.162Z,10.80
2018-04-26T17:44:30.722Z,10.80
2018-04-26T17:46:58.264Z,10.90
2018-04-26T17:49:26.597Z,10.60
2018-04-26T17:51:54.148Z,10.60
2018-04-26T17:54:21.686Z,10.50
2018-04-26T17:56:50.019Z,10.40
2018-04-26T17:59:17.567Z,10.40
2018-04-26T18:01:45.243Z,10.30
2018-04-26T18:04:12.795Z,10.20
2018-04-26T18:06:41.123Z,10.00
2018-04-26T18:09:08.687Z,10.00
2018-04-26T18:11:36.241Z,9.70
2018-04-26T18:14:03.778Z,9.40
2018-04-26T18:16:31.334Z,9.10
2018-04-26T18:18:58.869Z,8.80
2018-04-26T18:21:26.420Z,8.60
2018-04-26T18:23:54.745Z,8.30
2018-04-26T18:26:22.308Z,8.30
2018-04-26T18:28:49.864Z,8.20
2018-04-26T18:31:17.419Z,8.10
2018-04-26T18:33:45.744Z,8.00
2018-04-26T18:36:13.278Z,8.00
2018-04-26T18:38:41.602Z,7.80
2018-04-26T18:41:09.139Z,7.80
2018-04-26T18:43:37.462Z,7.70
2018-04-26T18:46:05.003Z,7.70
2018-04-26T18:48:33.335Z,7.60
2018-04-26T18:51:00.986Z,7.60
2018-04-26T18:53:28.487Z,7.50
2018-04-26T18:55:56.849Z,7.40
2018-04-26T18:58:24.403Z,7.40
2018-04-26T19:00:52.708Z,7.30
2018-04-26T19:03:20.286Z,7.20
2018-04-26T19:05:47.822Z,7.20
2018-04-26T19:08:16.141Z,7.10
2018-04-26T19:10:44.598Z,7.10
2018-04-26T19:13:12.143Z,7.10
2018-04-26T19:15:39.763Z,7.10
2018-04-26T19:18:07.291Z,7.10
2018-04-26T19:20:34.908Z,7.00
2018-04-26T19:23:03.214Z,6.90
2018-04-26T19:25:30.812Z,6.90
2018-04-26T19:27:58.502Z,6.90
2018-04-26T19:30:26.067Z,6.90
2018-04-26T19:32:53.603Z,6.80
2018-04-26T19:35:21.174Z,6.80
2018-04-26T19:37:48.705Z,6.80
2018-04-26T19:40:16.268Z,6.70
2018-04-26T19:42:43.802Z,6.60
2018-04-26T19:45:12.128Z,6.60
2018-04-26T19:47:39.671Z,6.50
2018-04-26T19:50:07.235Z,6.50
2018-04-26T19:52:34.777Z,6.50
2018-04-26T19:55:02.392Z,6.50
2018-04-26T19:57:29.990Z,6.60
2018-04-26T19:59:57.555Z,6.60
2018-04-26T20:02:25.094Z,6.60
2018-04-26T20:04:52.704Z,6.60
2018-04-26T20:07:20.334Z,6.50
2018-04-26T20:09:47.878Z,6.60
2018-04-26T20:12:16.214Z,6.60
2018-04-26T20:14:43.758Z,6.50
2018-04-26T20:17:11.328Z,6.50
2018-04-26T20:19:38.875Z,6.50
2018-04-26T20:22:07.239Z,6.50
2018-04-26T20:24:34.867Z,6.50
2018-04-26T20:27:02.505Z,6.50
2018-04-26T20:29:30.862Z,6.50
2018-04-26T20:31:58.427Z,6.40
2018-04-26T20:34:25.974Z,6.50
2018-04-26T20:36:53.543Z,6.50
2018-04-26T20:39:21.117Z,6.50
2018-04-26T20:41:54.555Z,6.40
2018-04-26T20:44:33.939Z,6.40
2018-04-26T20:47:02.273Z,6.30
2018-04-26T20:49:29.807Z,6.30
2018-04-26T20:51:58.135Z,6.30
2018-04-26T20:54:25.674Z,6.30
2018-04-26T20:56:54.012Z,6.30
2018-04-26T20:59:21.553Z,6.30
2018-04-26T21:01:49.115Z,6.30
2018-04-26T21:04:16.650Z,6.30
2018-04-26T21:06:44.222Z,6.30
2018-04-26T21:09:11.762Z,6.30
2018-04-26T21:11:39.322Z,6.30
2018-04-26T21:14:06.951Z,6.30
2018-04-26T21:16:34.474Z,6.30
2018-04-26T21:19:02.015Z,6.30
2018-04-26T21:21:29.558Z,6.40
2018-04-26T21:23:57.115Z,6.40
2018-04-26T21:26:24.655Z,6.40
2018-04-26T21:28:52.221Z,6.40
2018-04-26T21:31:19.759Z,6.50
2018-04-26T21:33:48.081Z,6.60
2018-04-26T21:36:15.614Z,6.60
2018-04-26T21:38:43.935Z,6.60
2018-04-26T21:41:11.470Z,6.60
2018-04-26T21:43:39.795Z,6.60
2018-04-26T21:46:07.340Z,6.50
2018-04-26T21:48:35.658Z,6.40
2018-04-26T21:51:08.923Z,6.40
2018-04-26T21:53:42.182Z,6.30
2018-04-26T21:56:15.328Z,6.30
2018-04-26T21:58:48.486Z,6.30
2018-04-26T22:01:21.792Z,6.30
2018-04-26T22:03:49.353Z,6.30
2018-04-26T22:06:16.882Z,6.20
2018-04-26T22:08:44.441Z,6.20
2018-04-26T22:11:11.983Z,6.20
2018-04-26T22:13:39.539Z,6.20
2018-04-26T22:16:07.080Z,6.10
2018-04-26T22:18:35.407Z,6.20
2018-04-26T22:21:02.945Z,6.20
2018-04-26T22:23:31.267Z,6.20
2018-04-26T22:25:58.800Z,6.20
2018-04-26T22:28:27.102Z,6.40
2018-04-26T22:30:55.422Z,6.40
2018-04-26T22:33:22.962Z,6.40
2018-04-26T22:35:50.523Z,6.40
2018-04-26T22:38:18.823Z,6.40
2018-04-26T22:40:46.383Z,6.40
2018-04-26T22:43:14.696Z,6.50
2018-04-26T22:45:42.256Z,6.40
2018-04-26T22:48:10.555Z,6.60
2018-04-26T22:50:38.116Z,6.60
2018-04-26T22:53:06.418Z,6.50
2018-04-26T22:55:33.978Z,6.50
2018-04-26T22:58:01.515Z,6.50
2018-04-26T23:00:29.079Z,6.50
2018-04-26T23:02:56.616Z,6.50
2018-04-26T23:05:24.172Z,6.50
2018-04-26T23:07:51.711Z,6.40
2018-04-26T23:10:19.274Z,6.30
2018-04-26T23:12:46.806Z,6.20
2018-04-26T23:15:14.364Z,6.10
2018-04-26T23:17:42.037Z,6.00
2018-04-26T23:20:09.597Z,5.90
2018-04-26T23:22:37.134Z,5.90
2018-04-26T23:25:04.686Z,5.90
2018-04-26T23:27:32.231Z,5.90
2018-04-26T23:29:59.784Z,5.90
2018-04-26T23:32:27.319Z,5.80
2018-04-26T23:34:54.858Z,5.80
2018-04-26T23:37:22.418Z,5.80
2018-04-26T23:39:49.961Z,5.70
2018-04-26T23:42:17.516Z,5.70
2018-04-26T23:44:45.813Z,5.60
2018-04-26T23:47:14.131Z,5.60
2018-04-26T23:49:41.667Z,5.60
2018-04-26T23:52:09.999Z,5.50
2018-04-26T23:54:37.546Z,5.50
2018-04-26T23:57:05.110Z,5.50
2018-04-26T23:59:33.410Z,5.60
